Time;durP1;ratioP1;P1;durP2;ratioP2;P2;SDS_P1;SDS_P2;PMS_P1;PMS_P2;Temp;Humidity;BMP_temperature;BMP_pressure;BME280_temperature;BME280_humidity;BME280_pressure;Samples;Min_cycle;Max_cycle;Signal;HPM_P1;HPM_P2
2022/08/09 00:01:30;;;;;;;4.23;2.10;;;19.90;86.50;;;20.80;62.98;98804.34;5059173;28;20492;-77
2022/08/09 00:04:21;;;;;;;4.00;2.10;;;19.90;86.70;;;20.80;63.41;98805.16;5059543;28;20515;-77
2022/08/09 00:07:05;;;;;;;3.73;1.93;;;19.70;87.30;;;20.79;63.29;98803.53;5058487;28;20981;-77
2022/08/09 00:09:38;;;;;;;2.60;2.10;;;19.80;86.90;;;20.76;63.22;98805.84;5059305;28;20476;-77
2022/08/09 00:12:12;;;;;;;3.37;2.40;;;19.80;87.10;;;20.72;63.78;98797.53;5059303;28;20463;-77
2022/08/09 00:14:51;;;;;;;7.83;2.00;;;19.70;87.30;;;20.66;64.72;98800.31;5057417;28;20897;-77
2022/08/09 00:17:24;;;;;;;3.57;2.40;;;19.60;87.90;;;20.65;64.42;98804.84;5061892;28;20468;-77
2022/08/09 00:20:14;;;;;;;3.00;2.33;;;19.70;87.20;;;20.51;65.20;98798.16;5059940;28;20547;-77
2022/08/09 00:22:44;;;;;;;7.23;2.10;;;19.50;88.00;;;20.48;65.40;98796.75;5059853;28;20505;-77
2022/08/09 00:25:14;;;;;;;2.40;2.00;;;19.50;87.90;;;20.39;66.10;98792.81;5060618;28;20498;-77
2022/08/09 00:27:59;;;;;;;3.20;2.10;;;19.40;88.30;;;20.41;66.60;98788.06;5058909;28;20498;-77
2022/08/09 00:30:31;;;;;;;3.77;2.77;;;19.40;88.40;;;20.37;66.80;98786.94;5060293;28;20460;-77
2022/08/09 00:33:02;;;;;;;4.50;2.00;;;19.30;88.70;;;20.37;66.92;98783.47;5060418;28;20472;-77
2022/08/09 00:35:31;;;;;;;2.53;1.90;;;19.30;88.80;;;20.34;66.58;98790.03;5059628;28;20453;-77
2022/08/09 00:38:12;;;;;;;3.47;2.20;;;19.30;88.70;;;20.26;67.66;98793.03;5058192;28;20448;-77
2022/08/09 00:40:43;;;;;;;3.37;2.30;;;19.20;89.10;;;20.25;67.67;98790.59;5061141;28;20472;-77
2022/08/09 00:43:21;;;;;;;9.50;2.50;;;19.20;89.10;;;20.24;67.92;98795.09;5060437;28;20496;-77
2022/08/09 00:46:10;;;;;;;3.03;2.03;;;19.10;89.10;;;20.18;68.04;98790.72;5057726;28;20453;-77
2022/08/09 00:48:59;;;;;;;2.67;1.87;;;19.20;89.00;;;20.18;67.89;98798.69;5058204;28;20955;-77
2022/08/09 00:51:31;;;;;;;2.80;1.90;;;19.20;88.90;;;20.17;68.19;98798.91;5054218;28;20455;-77
2022/08/09 00:54:22;;;;;;;2.80;2.30;;;19.10;89.30;;;20.13;68.28;98800.41;5055046;28;20452;-77
2022/08/09 00:57:02;;;;;;;5.77;2.67;;;19.10;88.90;;;20.12;68.47;98801.44;5057134;28;20802;-77
2022/08/09 00:59:39;;;;;;;2.67;2.10;;;19.10;89.00;;;20.02;68.76;98797.53;5057243;28;20470;-77
2022/08/09 01:02:23;;;;;;;5.43;2.17;;;19.00;89.30;;;20.02;69.23;98796.72;5057023;28;20901;-76
2022/08/09 01:05:01;;;;;;;6.20;2.73;;;18.90;89.70;;;19.94;69.50;98805.00;5055963;28;20483;-77
2022/08/09 01:07:52;;;;;;;2.63;2.00;;;18.90;89.80;;;19.87;70.14;98799.78;5054138;28;21267;-77
2022/08/09 01:10:43;;;;;;;3.20;2.53;;;18.80;90.10;;;19.83;69.92;98795.16;5058274;28;20473;-77
2022/08/09 01:13:19;;;;;;;7.27;2.20;;;18.80;90.00;;;19.85;69.90;98793.09;5056633;28;20547;-77
2022/08/09 01:15:54;;;;;;;4.40;2.70;;;18.80;89.90;;;19.80;70.49;98798.28;5056688;28;20995;-77
2022/08/09 01:18:29;;;;;;;15.00;2.30;;;18.70;90.00;;;19.82;70.46;98796.22;5056019;28;20476;-77
2022/08/09 01:21:17;;;;;;;2.57;2.00;;;18.60;90.10;;;19.77;70.95;98796.06;5057394;28;20471;-77
2022/08/09 01:23:59;;;;;;;4.80;2.40;;;18.70;90.10;;;19.74;71.04;98793.88;5056707;28;20490;-77
2022/08/09 01:26:53;;;;;;;5.23;2.40;;;18.60;90.00;;;19.67;71.71;98793.97;5056149;28;20500;-77
2022/08/09 01:29:29;;;;;;;5.00;2.03;;;18.60;90.30;;;19.69;71.96;98796.38;5057986;28;20556;-77
2022/08/09 01:32:21;;;;;;;4.67;2.00;;;18.50;90.30;;;19.55;72.36;98796.59;5059541;28;20559;-76
2022/08/09 01:35:08;;;;;;;2.53;2.00;;;18.50;90.50;;;19.51;72.66;98800.72;5056631;28;20523;-76
2022/08/09 01:38:02;;;;;;;7.60;2.60;;;18.40;90.50;;;19.51;72.56;98803.38;5057977;28;20552;-76
2022/08/09 01:40:43;;;;;;;2.80;2.00;;;18.40;90.40;;;19.52;72.62;98801.53;5059031;28;20445;-77
2022/08/09 01:43:23;;;;;;;2.90;1.83;;;18.40;90.50;;;19.45;72.89;98800.81;5058318;28;20969;-77
2022/08/09 01:45:55;;;;;;;5.23;2.50;;;18.30;90.60;;;19.46;73.54;98803.25;5059269;28;20927;-77
2022/08/09 01:48:27;;;;;;;6.47;2.47;;;18.30;90.70;;;19.37;73.61;98793.94;5056741;28;20468;-77
2022/08/09 01:51:01;;;;;;;4.07;2.10;;;18.30;90.70;;;19.37;73.71;98796.59;5057901;28;20464;-77
2022/08/09 01:53:33;;;;;;;2.83;2.33;;;18.20;90.70;;;19.33;73.87;98792.78;5055961;28;20517;-76
2022/08/09 01:56:11;;;;;;;3.73;2.43;;;18.20;90.80;;;19.27;74.76;98793.66;5057470;28;20464;-77
2022/08/09 01:58:44;;;;;;;3.37;2.23;;;18.10;90.80;;;19.26;74.83;98797.38;5057345;28;20460;-77
2022/08/09 02:01:18;;;;;;;6.63;2.47;;;18.10;90.90;;;19.27;74.76;98798.97;5056327;28;20456;-77
2022/08/09 02:04:12;;;;;;;5.27;2.40;;;18.10;90.90;;;19.26;74.67;98807.19;5057905;28;20483;-76
2022/08/09 02:09:35;;;;;;;4.67;3.23;;;18.10;91.00;;;19.20;75.49;98803.56;5058228;28;20471;-76
2022/08/09 02:12:13;;;;;;;6.50;2.30;;;18.10;91.00;;;19.18;75.14;98800.34;5056744;28;20539;-77
2022/08/09 02:14:54;;;;;;;3.37;2.30;;;18.10;91.00;;;19.18;75.64;98802.97;5058580;28;20460;-77
2022/08/09 02:17:30;;;;;;;3.30;2.50;;;18.00;91.10;;;19.13;75.48;98800.19;5057992;28;20433;-77
2022/08/09 02:20:19;;;;;;;3.67;2.40;;;18.00;91.10;;;19.09;76.30;98806.94;5058438;28;20461;-77
2022/08/09 02:23:07;;;;;;;5.63;2.70;;;18.00;91.30;;;19.08;76.25;98806.16;5058454;28;20432;-77
2022/08/09 02:25:42;;;;;;;4.90;2.00;;;17.90;91.20;;;19.02;77.21;98800.94;5058851;28;20494;-77
2022/08/09 02:28:35;;;;;;;2.90;2.07;;;17.80;91.40;;;19.01;77.12;98800.13;5057782;28;20460;-77
2022/08/09 02:31:12;;;;;;;4.67;2.40;;;17.90;91.60;;;18.99;77.14;98804.84;5058737;28;20606;-77
2022/08/09 02:33:48;;;;;;;6.83;3.07;;;17.80;91.30;;;18.96;77.28;98804.47;5054994;28;20452;-77
2022/08/09 02:36:44;;;;;;;4.37;2.43;;;17.80;91.50;;;18.89;77.56;98806.38;5056277;28;20444;-77
2022/08/09 02:39:20;;;;;;;5.07;2.77;;;17.80;91.50;;;18.86;77.73;98805.00;5059350;28;20456;-76
2022/08/09 02:42:16;;;;;;;8.27;2.50;;;17.70;91.40;;;18.87;77.86;98803.16;5058305;28;20551;-77
2022/08/09 02:44:50;;;;;;;3.47;2.40;;;17.70;91.50;;;18.84;78.31;98798.31;5057231;28;21048;-76
2022/08/09 02:47:24;;;;;;;4.27;2.27;;;17.70;91.70;;;18.81;78.50;98793.44;5054205;28;20546;-77
2022/08/09 02:50:00;;;;;;;3.40;1.77;;;17.70;91.80;;;18.77;78.02;98794.91;5055814;28;20456;-77
2022/08/09 02:52:38;;;;;;;5.30;2.30;;;17.60;91.70;;;18.71;78.82;98803.75;5055767;28;20487;-77
2022/08/09 02:55:10;;;;;;;4.00;2.60;;;17.60;91.60;;;18.66;79.08;98801.75;5055370;28;20524;-77
2022/08/09 02:57:49;;;;;;;5.50;2.73;;;17.60;91.80;;;18.50;80.14;98797.00;5052874;28;20459;-77
2022/08/09 03:00:40;;;;;;;2.50;2.20;;;17.50;91.80;;;18.50;80.81;98799.66;5053658;28;20556;-77
2022/08/09 03:03:29;;;;;;;8.80;3.10;;;17.40;92.10;;;18.51;80.50;98804.75;5057487;28;20469;-77
2022/08/09 03:06:21;;;;;;;4.70;2.40;;;17.40;92.00;;;18.51;80.52;98799.44;5056612;28;20783;-77
2022/08/09 03:08:57;;;;;;;7.27;2.77;;;17.40;92.10;;;18.51;81.32;98799.44;5054890;28;20497;-77
2022/08/09 03:11:28;;;;;;;3.03;2.20;;;17.30;92.20;;;18.52;81.13;98803.72;5054818;28;20482;-81
2022/08/09 03:14:20;;;;;;;5.87;2.77;;;17.30;92.20;;;18.48;81.34;98794.56;5056572;28;20997;-77
2022/08/09 03:16:59;;;;;;;6.23;3.00;;;17.30;92.30;;;18.43;81.17;98791.75;5054266;28;20497;-77
2022/08/09 03:19:32;;;;;;;3.13;2.30;;;17.30;92.30;;;18.41;81.76;98799.13;5054810;28;20467;-77
2022/08/09 03:22:21;;;;;;;10.13;2.93;;;17.20;92.40;;;18.35;81.93;98800.00;5061506;28;20464;-77
2022/08/09 03:24:59;;;;;;;2.60;2.10;;;17.20;92.50;;;18.33;82.19;98807.34;5058004;28;20472;-78
2022/08/09 03:27:52;;;;;;;2.90;2.30;;;17.20;92.50;;;18.27;82.54;98808.22;5058746;28;20568;-77
2022/08/09 03:30:23;;;;;;;3.00;2.10;;;17.20;92.70;;;18.29;82.67;98803.50;5060015;28;20462;-77
2022/08/09 03:33:05;;;;;;;4.90;2.90;;;17.20;92.60;;;18.26;82.62;98801.28;5060150;28;20475;-77
2022/08/09 03:35:49;;;;;;;4.10;2.50;;;17.10;92.60;;;18.24;83.23;98805.19;5058389;28;20885;-77
2022/08/09 03:38:40;;;;;;;4.17;2.67;;;17.10;92.60;;;18.18;83.61;98804.22;5057966;28;20491;-77
2022/08/09 03:41:12;;;;;;;3.63;2.77;;;17.10;92.80;;;18.17;83.03;98807.88;5057954;28;20831;-79
2022/08/09 03:43:45;;;;;;;3.03;2.43;;;17.10;92.70;;;18.18;83.59;98808.72;5058182;28;20518;-77
2022/08/09 03:46:34;;;;;;;4.10;2.33;;;17.10;92.90;;;18.17;83.75;98818.47;5059861;28;20567;-78
2022/08/09 03:49:06;;;;;;;3.63;2.50;;;17.00;92.80;;;18.14;83.72;98816.28;5061546;28;20441;-77
2022/08/09 03:51:44;;;;;;;5.07;2.50;;;17.00;92.90;;;18.10;84.54;98817.72;5060696;28;20460;-77
2022/08/09 03:54:31;;;;;;;6.37;2.70;;;17.00;93.00;;;18.06;84.52;98814.69;5059399;28;20488;-77
2022/08/09 03:57:05;;;;;;;2.70;2.30;;;16.90;93.00;;;18.07;84.58;98813.69;5058318;28;20543;-77
2022/08/09 03:59:50;;;;;;;4.63;2.50;;;16.90;92.90;;;18.03;84.63;98817.78;5058666;28;20472;-77
2022/08/09 04:02:25;;;;;;;4.30;3.00;;;16.90;93.10;;;17.98;84.69;98819.44;5061312;28;20456;-78
2022/08/09 04:05:00;;;;;;;3.50;2.60;;;16.90;93.00;;;17.99;85.25;98826.34;5058285;28;20477;-77
2022/08/09 04:07:37;;;;;;;6.73;2.77;;;16.90;93.10;;;17.96;84.91;98826.78;5059046;28;20555;-77
2022/08/09 04:10:25;;;;;;;5.40;2.60;;;16.80;93.00;;;17.92;85.04;98830.88;5061239;28;20501;-77
2022/08/09 04:13:00;;;;;;;3.50;2.60;;;16.80;93.20;;;17.91;85.68;98824.78;5060252;28;20544;-77
2022/08/09 04:15:32;;;;;;;3.77;2.53;;;16.80;93.10;;;17.91;85.77;98824.00;5060422;28;20457;-77
2022/08/09 04:18:21;;;;;;;5.30;2.83;;;16.70;93.20;;;17.88;85.70;98832.34;5061405;28;20576;-77
2022/08/09 04:20:52;;;;;;;7.33;3.30;;;16.70;93.10;;;17.86;85.59;98827.28;5059373;28;20449;-77
2022/08/09 04:23:23;;;;;;;4.53;2.90;;;16.70;93.30;;;17.84;85.80;98828.50;5059859;28;20468;-77
2022/08/09 04:25:54;;;;;;;7.70;2.60;;;16.70;93.30;;;17.78;86.19;98834.63;5059440;28;20485;-77
2022/08/09 04:28:25;;;;;;;3.70;2.40;;;16.60;93.30;;;17.81;86.61;98831.56;5058014;28;20464;-77
2022/08/09 04:31:06;;;;;;;3.70;2.87;;;16.60;93.50;;;17.76;86.91;98836.69;5057480;28;20486;-77
2022/08/09 04:33:39;;;;;;;4.40;2.70;;;16.60;93.50;;;17.75;87.00;98837.72;5056734;28;20472;-82
2022/08/09 04:36:26;;;;;;;4.90;3.30;;;16.60;93.60;;;17.67;87.47;98841.41;5058096;28;20557;-77
2022/08/09 04:38:59;;;;;;;5.67;2.93;;;16.50;93.70;;;17.69;87.65;98846.50;5055518;28;20966;-77
2022/08/09 04:41:28;;;;;;;3.53;2.77;;;16.50;93.60;;;17.69;87.76;98855.25;5055146;28;20981;-77
2022/08/09 04:44:14;;;;;;;3.30;2.23;;;16.50;93.60;;;17.66;87.07;98858.34;5057211;28;20456;-77
2022/08/09 04:46:44;;;;;;;7.27;3.50;;;16.60;93.30;;;17.63;87.13;98852.66;5057178;28;20504;-77
2022/08/09 04:49:32;;;;;;;3.40;2.70;;;16.60;93.20;;;17.60;88.00;98857.34;5054683;28;20465;-77
2022/08/09 04:52:21;;;;;;;3.93;2.57;;;16.50;93.60;;;17.53;88.06;98864.47;5057898;28;20623;-77
2022/08/09 04:54:58;;;;;;;4.30;3.00;;;16.50;93.60;;;17.50;88.52;98862.25;5054880;28;20491;-77
2022/08/09 04:57:29;;;;;;;3.17;2.60;;;16.40;93.80;;;17.46;89.22;98858.38;5056811;28;20967;-78
2022/08/09 05:00:21;;;;;;;9.93;2.53;;;16.40;93.90;;;17.40;90.04;98866.34;5054353;28;20547;-77
2022/08/09 05:03:00;;;;;;;2.93;2.63;;;16.30;94.20;;;17.41;90.61;98871.44;5053354;28;20471;-77
2022/08/09 05:05:49;;;;;;;3.80;2.70;;;16.30;94.20;;;17.40;90.57;98858.44;5056833;28;20507;-77
2022/08/09 05:08:32;;;;;;;21.17;11.07;;;16.30;94.30;;;17.36;91.20;98865.97;5056574;28;20460;-77
2022/08/09 05:11:04;;;;;;;7.13;3.30;;;16.30;94.30;;;17.38;91.28;98863.94;5055408;28;20479;-77
2022/08/09 05:13:35;;;;;;;4.63;3.47;;;16.40;94.20;;;17.39;91.35;98865.53;5056426;28;20539;-78
2022/08/09 05:16:08;;;;;;;4.13;2.93;;;16.30;94.30;;;17.41;91.30;98866.16;5056688;28;20460;-77
2022/08/09 05:18:38;;;;;;;3.80;2.60;;;16.40;94.50;;;17.43;91.28;98869.41;5058007;28;20457;-77
2022/08/09 05:21:27;;;;;;;3.43;2.77;;;16.40;94.20;;;17.45;91.21;98867.38;5055032;28;20469;-77
2022/08/09 05:23:58;;;;;;;4.03;2.80;;;16.40;94.40;;;17.47;91.19;98870.59;5054422;28;20460;-77
2022/08/09 05:26:34;;;;;;;9.90;3.40;;;16.40;94.40;;;17.50;91.31;98879.94;5055979;28;20487;-78
2022/08/09 05:29:18;;;;;;;3.63;2.43;;;16.40;94.40;;;17.52;91.84;98880.56;5053098;28;20870;-77
2022/08/09 05:31:52;;;;;;;3.90;2.57;;;16.40;94.50;;;17.55;91.57;98880.94;5055291;28;20961;-78
2022/08/09 05:34:26;;;;;;;9.73;3.10;;;16.50;94.50;;;17.59;91.86;98879.53;5055165;28;21157;-78
2022/08/09 05:37:01;;;;;;;4.10;2.50;;;16.50;94.60;;;17.61;92.07;98874.03;5054984;28;20484;-78
2022/08/09 05:39:33;;;;;;;4.10;3.10;;;16.50;94.60;;;17.65;91.65;98877.06;5058241;28;20463;-78
2022/08/09 05:42:13;;;;;;;5.70;2.90;;;16.60;94.60;;;17.63;92.34;98879.94;5053604;28;20514;-78
2022/08/09 05:44:59;;;;;;;64.53;33.60;;;16.60;94.40;;;17.63;92.37;98885.22;5057001;28;20861;-79
2022/08/09 05:47:27;;;;;;;8.37;5.23;;;16.60;94.50;;;17.66;92.76;98879.50;5057754;28;20503;-78
2022/08/09 05:49:57;;;;;;;4.80;2.17;;;16.60;94.60;;;17.70;92.87;98885.19;5054278;28;20464;-76
2022/08/09 05:52:46;;;;;;;6.47;3.00;;;16.70;94.60;;;17.67;94.37;98880.31;5057118;28;20492;-77
2022/08/09 05:55:22;;;;;;;5.50;2.67;;;16.70;94.60;;;17.71;92.14;98878.84;5054013;28;20471;-78
2022/08/09 05:57:53;;;;;;;3.27;2.47;;;16.70;94.10;;;17.79;91.65;98878.59;5056631;28;20478;-78
2022/08/09 06:00:27;;;;;;;4.03;2.33;;;16.80;94.20;;;17.86;91.31;98884.66;5055546;28;20519;-78
2022/08/09 06:02:57;;;;;;;7.60;2.47;;;16.90;94.30;;;17.90;92.49;98878.75;5052757;28;20552;-78
2022/08/09 06:05:27;;;;;;;3.57;2.20;;;17.00;94.40;;;17.94;91.80;98881.78;5056246;28;20460;-77
2022/08/09 06:08:17;;;;;;;4.33;2.70;;;17.00;94.00;;;18.01;89.89;98879.91;5054240;28;20556;-77
2022/08/09 06:10:54;;;;;;;5.57;2.43;;;17.10;93.60;;;18.10;89.80;98886.56;5057365;28;20594;-77
2022/08/09 06:13:27;;;;;;;3.67;2.73;;;17.20;93.80;;;18.18;88.09;98888.94;5063225;28;20562;-77
2022/08/09 06:16:03;;;;;;;4.53;2.50;;;17.30;93.40;;;18.26;85.77;98893.16;5060277;28;21384;-77
2022/08/09 06:18:34;;;;;;;8.17;4.73;;;17.40;93.10;;;18.35;85.08;98897.16;5057113;28;20506;-83
2022/08/09 06:21:06;;;;;;;6.40;3.60;;;17.40;92.70;;;18.45;84.37;98894.84;5053788;28;20458;-77
2022/08/09 06:23:37;;;;;;;5.20;2.80;;;17.60;92.60;;;18.53;83.81;98891.97;5054692;28;20516;-77
2022/08/09 06:26:27;;;;;;;3.87;2.77;;;17.70;92.60;;;18.63;84.22;98894.13;5055612;28;20490;-77
2022/08/09 06:28:58;;;;;;;7.00;2.73;;;17.80;92.80;;;18.70;84.11;98903.63;5054293;28;21010;-77
2022/08/09 06:31:34;;;;;;;7.73;5.23;;;17.90;92.60;;;18.76;83.80;98908.06;5052739;28;20489;-77
2022/08/09 06:34:23;;;;;;;3.53;2.80;;;17.90;92.50;;;18.83;82.29;98903.50;5055828;28;20460;-77
2022/08/09 06:36:57;;;;;;;3.43;2.80;;;18.00;92.10;;;18.91;81.17;98907.72;5056514;28;20472;-77
2022/08/09 06:39:29;;;;;;;3.50;2.33;;;18.10;92.00;;;18.97;80.09;98905.00;5057949;28;20535;-77
2022/08/09 06:42:20;;;;;;;2.93;2.47;;;18.10;91.90;;;19.05;80.04;98904.69;5056902;28;20453;-77
2022/08/09 06:45:01;;;;;;;6.23;2.73;;;18.20;91.90;;;19.12;80.27;98906.47;5058925;28;20531;-77
2022/08/09 06:47:50;;;;;;;3.93;2.70;;;18.20;91.90;;;19.19;80.26;98908.03;5057556;28;20857;-77
2022/08/09 06:50:28;;;;;;;4.37;2.50;;;18.30;92.10;;;19.26;79.72;98908.78;5057926;28;20443;-77
2022/08/09 06:53:00;;;;;;;2.90;2.50;;;18.40;91.80;;;19.32;79.32;98909.72;5056404;28;20468;-77
2022/08/09 06:55:31;;;;;;;4.60;2.57;;;18.40;91.80;;;19.37;78.65;98907.19;5061428;28;20456;-77
2022/08/09 06:58:01;;;;;;;4.17;2.73;;;18.50;91.30;;;19.42;78.18;98913.50;5058982;28;20510;-77
2022/08/09 07:00:35;;;;;;;4.70;2.43;;;18.60;91.50;;;19.49;77.75;98911.59;5063530;28;20440;-77
2022/08/09 07:03:24;;;;;;;4.63;2.57;;;18.60;91.40;;;19.55;77.50;98912.53;5062942;28;20460;-77
2022/08/09 07:05:57;;;;;;;5.70;2.60;;;18.60;91.30;;;19.62;77.43;98912.44;5061687;28;20455;-77
2022/08/09 07:08:34;;;;;;;5.40;2.47;;;18.70;91.50;;;19.66;76.76;98914.44;5061325;28;20476;-77
2022/08/09 07:11:07;;;;;;;2.77;2.47;;;18.80;91.10;;;19.73;75.77;98917.00;5061282;28;20448;-77
2022/08/09 07:13:43;;;;;;;4.10;2.63;;;18.80;90.80;;;19.77;75.29;98923.47;5060824;28;20522;-77
2022/08/09 07:16:34;;;;;;;4.83;2.10;;;18.90;91.00;;;19.82;74.24;98923.63;5060779;28;20447;-78
2022/08/09 07:19:18;;;;;;;5.43;2.50;;;19.00;90.60;;;19.88;73.41;98923.53;5063747;28;20448;-77
2022/08/09 07:21:52;;;;;;;5.93;2.47;;;19.00;90.50;;;19.94;72.64;98916.50;5063266;28;20535;-77
2022/08/09 07:24:29;;;;;;;13.93;2.60;;;19.10;90.30;;;20.00;72.77;98912.94;5061867;28;20928;-77
2022/08/09 07:27:08;;;;;;;2.97;2.30;;;19.10;90.40;;;20.04;72.91;98916.78;5060787;28;20908;-77
2022/08/09 07:29:57;;;;;;;2.97;2.03;;;19.10;90.50;;;20.12;72.08;98923.63;5062975;28;20969;-77
2022/08/09 07:32:27;;;;;;;6.80;2.40;;;19.30;90.30;;;20.16;71.94;98930.09;5059943;28;20465;-77
2022/08/09 07:35:04;;;;;;;3.73;2.17;;;19.30;90.20;;;20.18;71.37;98931.50;5061247;28;20503;-77
2022/08/09 07:37:40;;;;;;;3.43;2.07;;;19.30;90.20;;;20.23;71.10;98930.81;5064178;28;20460;-77
2022/08/09 07:40:14;;;;;;;6.47;2.40;;;19.40;90.20;;;20.27;70.40;98927.50;5063185;28;20451;-77
2022/08/09 07:42:53;;;;;;;6.37;2.90;;;19.40;90.00;;;20.34;70.56;98927.41;5062797;28;20543;-77
2022/08/09 07:45:27;;;;;;;4.30;2.37;;;19.50;90.10;;;20.39;71.09;98928.34;5058369;28;20956;-77
2022/08/09 07:48:11;;;;;;;4.83;2.50;;;19.50;90.30;;;20.45;71.04;98926.59;5063913;28;21052;-77
2022/08/09 07:51:00;;;;;;;4.93;2.33;;;19.50;90.20;;;20.49;71.08;98917.97;5060008;28;20478;-77
2022/08/09 07:53:38;;;;;;;3.93;2.40;;;19.60;90.20;;;20.55;70.83;98925.00;5057744;28;20463;-77
2022/08/09 07:56:26;;;;;;;2.83;2.07;;;19.70;90.20;;;20.60;70.49;98921.66;5059840;28;20594;-77
2022/08/09 07:58:58;;;;;;;3.53;2.53;;;19.70;90.10;;;20.67;70.17;98921.56;5058993;28;20440;-77
2022/08/09 08:01:28;;;;;;;5.43;2.60;;;19.80;90.10;;;20.72;69.68;98929.66;5057345;28;20506;-77
2022/08/09 08:04:04;;;;;;;7.83;2.83;;;19.90;90.00;;;20.76;68.72;98917.50;5058448;28;20460;-77
2022/08/09 08:06:39;;;;;;;8.00;2.67;;;19.90;89.30;;;20.82;67.66;98913.94;5060165;28;20441;-77
2022/08/09 08:09:23;;;;;;;5.73;2.43;;;20.00;89.00;;;20.88;67.06;98919.16;5060668;28;20452;-78
2022/08/09 08:12:11;;;;;;;4.87;2.57;;;20.10;88.70;;;20.94;66.56;98914.75;5062177;28;20846;-78
2022/08/09 08:14:56;;;;;;;13.23;2.30;;;20.20;88.30;;;21.02;66.66;98920.53;5058372;28;20954;-78
2022/08/09 08:17:26;;;;;;;6.77;2.33;;;20.30;88.50;;;21.10;66.31;98911.41;5061153;28;20527;-77
2022/08/09 08:20:16;;;;;;;4.43;2.40;;;20.40;88.40;;;21.17;65.44;98909.44;5060518;28;20960;-77
2022/08/09 08:22:58;;;;;;;4.57;2.30;;;20.40;87.90;;;21.23;64.59;98910.34;5059858;28;20441;-77
2022/08/09 08:25:29;;;;;;;5.23;2.37;;;20.40;87.70;;;21.29;64.33;98907.56;5061597;28;20464;-77
2022/08/09 08:28:14;;;;;;;6.07;3.43;;;20.40;87.60;;;21.37;64.14;98907.22;5060381;28;21222;-78
2022/08/09 08:30:52;;;;;;;3.33;2.50;;;20.60;87.60;;;21.44;64.18;98904.41;5060442;28;20476;-77
2022/08/09 08:33:23;;;;;;;10.70;2.90;;;20.70;87.80;;;21.50;64.25;98906.94;5062419;28;20975;-77
2022/08/09 08:35:54;;;;;;;3.67;2.00;;;20.70;87.70;;;21.54;64.91;98902.75;5059524;28;20452;-77
2022/08/09 08:38:28;;;;;;;2.80;2.33;;;20.70;88.60;;;21.58;64.26;98908.41;5061140;28;20432;-77
2022/08/09 08:40:58;;;;;;;3.00;2.40;;;20.70;87.10;;;21.65;63.24;98900.28;5063512;28;20513;-77
2022/08/09 08:43:35;;;;;;;3.20;2.30;;;20.90;86.70;;;21.71;63.14;98902.81;5060374;28;20441;-77
2022/08/09 08:46:08;;;;;;;12.60;2.40;;;20.90;87.00;;;21.77;62.43;98901.03;5060904;28;20479;-77
2022/08/09 08:48:58;;;;;;;4.70;2.70;;;21.00;86.40;;;21.82;62.47;98899.31;5052632;28;20484;-77
2022/08/09 08:51:30;;;;;;;4.60;2.43;;;21.00;86.70;;;21.90;61.87;98901.59;5056264;28;20466;-77
2022/08/09 08:54:10;;;;;;;5.00;1.93;;;21.20;86.50;;;21.98;61.71;98900.41;5058476;28;20459;-77
2022/08/09 08:56:48;;;;;;;3.30;1.90;;;21.40;86.20;;;22.09;59.81;98899.53;5056229;28;20632;-78
2022/08/09 08:59:17;;;;;;;6.53;2.30;;;21.50;85.20;;;22.21;58.57;98902.16;5058362;28;20471;-77
2022/08/09 09:01:50;;;;;;;3.67;2.30;;;21.60;84.10;;;22.31;56.73;98903.13;5057296;28;20555;-78
2022/08/09 09:04:28;;;;;;;5.53;2.27;;;21.70;82.50;;;22.40;56.70;98901.66;5057059;28;20456;-77
2022/08/09 09:07:09;;;;;;;7.83;2.30;;;21.80;83.30;;;22.48;56.11;98895.13;5054521;28;20528;-77
2022/08/09 09:09:45;;;;;;;3.47;2.27;;;21.90;82.60;;;22.57;55.04;98901.66;5058915;28;20481;-77
2022/08/09 09:12:33;;;;;;;5.67;1.97;;;22.00;81.80;;;22.67;54.70;98895.69;5058065;28;20480;-77
2022/08/09 09:15:06;;;;;;;3.60;2.20;;;22.10;81.20;;;22.82;52.63;98887.94;5054280;28;20460;-77
2022/08/09 09:17:36;;;;;;;8.13;2.30;;;22.40;79.90;;;22.95;52.83;98890.25;5058596;28;20852;-77
2022/08/09 09:20:20;;;;;;;7.33;2.10;;;22.40;79.80;;;23.08;52.60;98892.59;5057157;28;20473;-77
2022/08/09 09:22:56;;;;;;;6.40;2.33;;;22.50;79.90;;;23.17;51.80;98885.75;5054616;28;20475;-78
2022/08/09 09:25:36;;;;;;;1.97;1.77;;;22.60;79.50;;;23.26;51.56;98894.13;5057319;28;20547;-78
2022/08/09 09:28:33;;;;;;;3.30;2.10;;;22.70;79.40;;;23.32;50.84;98896.63;5056793;28;20590;-78
2022/08/09 09:31:23;;;;;;;2.67;1.90;;;22.70;79.40;;;23.36;49.46;98889.72;5053940;28;20476;-78
2022/08/09 09:34:13;;;;;;;2.20;1.63;;;22.80;77.30;;;23.45;49.20;98898.97;5054661;28;20491;-78
2022/08/09 09:36:47;;;;;;;3.20;1.97;;;22.90;77.40;;;23.52;48.92;98893.44;5056719;28;20465;-77
2022/08/09 09:39:25;;;;;;;3.33;1.80;;;23.00;77.10;;;23.57;48.56;98896.13;5057267;28;20463;-77
2022/08/09 09:42:24;;;;;;;5.20;1.90;;;23.00;76.90;;;23.63;49.06;98897.03;5054590;28;20492;-77
2022/08/09 09:45:00;;;;;;;3.90;2.00;;;23.00;77.30;;;23.68;48.14;98895.19;5056809;28;20467;-77
2022/08/09 09:47:31;;;;;;;4.20;1.83;;;23.10;76.40;;;23.75;48.31;98895.00;5054728;28;20886;-78
2022/08/09 09:50:02;;;;;;;2.87;2.10;;;23.10;76.60;;;23.81;48.17;98892.13;5054042;28;20469;-78
2022/08/09 09:52:51;;;;;;;3.50;1.90;;;23.10;76.50;;;23.87;48.51;98888.47;5055287;28;20472;-78
2022/08/09 09:55:24;;;;;;;3.13;1.50;;;23.20;77.40;;;23.93;47.97;98887.47;5055784;28;20484;-77
2022/08/09 09:58:06;;;;;;;6.13;4.03;;;23.20;76.50;;;23.96;47.96;98888.81;5056825;28;20456;-77
2022/08/09 10:00:49;;;;;;;3.97;2.60;;;23.30;76.60;;;24.00;47.43;98895.28;5054245;28;20953;-78
2022/08/09 10:03:42;;;;;;;5.73;2.10;;;23.30;76.00;;;24.06;47.86;98892.38;5055487;28;20471;-77
2022/08/09 10:06:12;;;;;;;3.73;1.80;;;23.40;76.60;;;24.14;47.09;98893.84;5053862;28;20468;-77
2022/08/09 10:08:42;;;;;;;3.80;1.83;;;23.50;75.50;;;24.16;46.91;98886.34;5054957;28;20530;-77
2022/08/09 10:11:29;;;;;;;10.60;1.87;;;23.60;75.70;;;24.32;46.15;98888.13;5053732;28;21077;-77
2022/08/09 10:14:22;;;;;;;9.03;3.83;;;23.80;74.90;;;24.38;46.70;98887.09;5053933;28;20540;-78
2022/08/09 10:16:59;;;;;;;4.20;2.00;;;23.70;75.60;;;24.47;46.73;98887.44;5056900;28;20468;-78
2022/08/09 10:19:49;;;;;;;2.40;1.63;;;23.90;75.50;;;24.50;46.64;98882.34;5059266;28;20445;-77
2022/08/09 10:22:31;;;;;;;5.27;1.60;;;23.80;75.30;;;24.53;45.95;98876.53;5057080;28;20817;-78
2022/08/09 10:25:06;;;;;;;3.20;1.90;;;23.80;74.90;;;24.58;45.34;98882.94;5056987;28;20494;-78
2022/08/09 10:27:45;;;;;;;2.73;1.50;;;23.90;74.40;;;24.62;46.45;98881.38;5060728;28;20432;-78
2022/08/09 10:30:27;;;;;;;2.70;1.97;;;23.90;75.50;;;24.75;46.47;98878.28;5062949;28;20481;-77
2022/08/09 10:33:16;;;;;;;2.43;1.97;;;24.20;74.90;;;24.90;45.77;98878.38;5063864;28;20841;-78
2022/08/09 10:36:10;;;;;;;2.87;1.67;;;24.40;74.40;;;25.06;45.32;98872.03;5063833;28;20467;-78
2022/08/09 10:38:42;;;;;;;5.03;2.43;;;24.60;74.00;;;25.18;45.32;98864.59;5064322;28;20533;-78
2022/08/09 10:41:24;;;;;;;5.90;1.80;;;24.70;74.20;;;25.27;45.22;98865.69;5063349;28;20453;-78
2022/08/09 10:43:57;;;;;;;3.27;1.50;;;24.80;73.90;;;25.34;44.94;98868.13;5064268;28;20466;-78
2022/08/09 10:47:06;;;;;;;3.17;1.77;;;24.80;73.70;;;25.46;44.19;98864.19;5061712;28;20808;-78
2022/08/09 10:50:12;;;;;;;2.97;1.93;;;25.00;73.10;;;25.50;43.38;98861.78;5059703;28;20568;-78
2022/08/09 10:53:05;;;;;;;2.23;1.80;;;24.90;72.20;;;25.58;43.18;98868.53;5060984;28;20448;-78
2022/08/09 10:55:38;;;;;;;4.87;3.70;;;25.10;72.30;;;25.65;43.17;98869.09;5062275;28;20513;-78
2022/08/09 10:58:31;;;;;;;6.23;1.97;;;25.10;72.30;;;25.68;42.58;98860.53;5061254;28;20450;-78
2022/08/09 11:01:05;;;;;;;3.43;2.00;;;25.20;71.60;;;25.74;41.98;98867.50;5059032;28;20492;-77
2022/08/09 11:04:20;;;;;;;4.20;2.10;;;25.30;70.20;;;25.79;41.76;98859.50;5057940;28;20542;-77
2022/08/09 11:07:29;;;;;;;4.20;1.60;;;25.40;70.60;;;25.91;41.86;98873.44;5060302;28;20975;-78
2022/08/09 11:10:53;;;;;;;4.23;1.70;;;25.40;71.00;;;26.01;41.35;98873.44;5059725;28;20580;-77
2022/08/09 11:13:28;;;;;;;4.13;1.83;;;25.50;70.20;;;26.02;41.16;98853.59;5057782;28;20463;-77